createdAt,value
2022-08-03T00:00:15.992Z,18.70
2022-08-03T00:05:17.871Z,22.50
2022-08-03T00:10:19.732Z,24.40
2022-08-03T00:15:21.661Z,15.80
2022-08-03T00:20:25.460Z,15.10
2022-08-03T00:25:27.464Z,21.90
2022-08-03T00:30:30.903Z,23.50
2022-08-03T00:35:50.199Z,24.00
2022-08-03T00:40:53.331Z,16.40
2022-08-03T00:45:57.268Z,18.50
2022-08-03T00:50:59.444Z,20.50
2022-08-03T00:56:01.434Z,18.60
2022-08-03T01:01:07.191Z,18.80
2022-08-03T01:06:29.665Z,18.90
2022-08-03T01:11:31.621Z,20.80
2022-08-03T01:16:40.301Z,17.80
2022-08-03T01:22:05.655Z,18.40
2022-08-03T01:27:09.635Z,20.60
2022-08-03T01:32:58.173Z,18.60
2022-08-03T01:37:38.901Z,19.00
2022-08-03T01:42:41.911Z,20.50
2022-08-03T01:47:44.722Z,19.30
2022-08-03T01:52:47.903Z,23.30
2022-08-03T01:58:05.336Z,20.40
2022-08-03T02:03:09.810Z,21.20
2022-08-03T02:08:13.303Z,18.40
2022-08-03T02:13:15.499Z,21.40
2022-08-03T02:18:19.240Z,21.90
2022-08-03T02:23:21.170Z,22.60
2022-08-03T02:28:28.750Z,24.30
2022-08-03T02:33:33.149Z,24.80
2022-08-03T02:38:36.923Z,22.40
2022-08-03T02:44:05.889Z,23.20
2022-08-03T02:49:49.446Z,19.10
2022-08-03T02:54:25.325Z,16.50
2022-08-03T02:59:28.480Z,18.10
2022-08-03T03:04:32.920Z,18.90
2022-08-03T03:09:40.177Z,17.70
2022-08-03T03:14:43.997Z,20.60
2022-08-03T03:19:46.382Z,21.70
2022-08-03T03:24:50.813Z,20.00
2022-08-03T03:29:53.128Z,16.40
2022-08-03T03:34:56.141Z,18.40
2022-08-03T03:39:58.365Z,18.90
2022-08-03T03:45:03.589Z,19.80
2022-08-03T03:50:06.699Z,15.60
2022-08-03T03:55:08.714Z,15.60
2022-08-03T04:00:15.021Z,18.40
2022-08-03T04:05:35.825Z,17.90
2022-08-03T04:10:58.946Z,18.10
2022-08-03T04:16:01.460Z,17.40
2022-08-03T04:21:04.635Z,20.50
2022-08-03T04:26:28.097Z,19.80
2022-08-03T04:31:40.053Z,17.40
2022-08-03T04:36:45.361Z,19.70
2022-08-03T04:42:07.257Z,18.30
2022-08-03T04:47:10.386Z,17.50
2022-08-03T04:52:12.422Z,18.10
2022-08-03T04:57:22.547Z,17.80
2022-08-03T05:02:28.733Z,19.90
2022-08-03T05:07:36.284Z,21.60
2022-08-03T05:13:00.081Z,20.20
2022-08-03T05:18:02.620Z,18.40
2022-08-03T05:23:04.495Z,18.00
2022-08-03T05:28:06.644Z,17.50
2022-08-03T05:33:08.503Z,16.90
2022-08-03T05:38:10.504Z,15.50
2022-08-03T05:43:12.521Z,16.70
2022-08-03T05:48:14.275Z,15.80
2022-08-03T05:53:16.703Z,17.20
2022-08-03T05:58:20.378Z,16.70
2022-08-03T06:03:22.502Z,15.10
2022-08-03T06:08:24.498Z,13.70
2022-08-03T06:13:26.413Z,15.50
2022-08-03T06:18:28.443Z,15.20
2022-08-03T06:23:54.039Z,13.90
2022-08-03T06:28:54.175Z,13.80
2022-08-03T06:34:32.954Z,13.60
2022-08-03T06:39:18.857Z,15.10
2022-08-03T06:44:21.227Z,13.80
2022-08-03T06:49:26.390Z,14.40
2022-08-03T06:54:28.375Z,14.60
2022-08-03T07:00:08.644Z,14.00
2022-08-03T07:05:12.135Z,12.30
2022-08-03T07:10:13.920Z,10.50
2022-08-03T07:15:20.621Z,10.10
2022-08-03T07:20:37.592Z,10.60
2022-08-03T07:25:39.361Z,9.90
2022-08-03T07:30:41.315Z,9.00
2022-08-03T07:35:43.189Z,9.30
2022-08-03T07:40:46.402Z,7.90
2022-08-03T07:45:48.446Z,8.70
2022-08-03T07:50:50.927Z,8.70
2022-08-03T07:55:55.119Z,7.30
2022-08-03T08:00:56.966Z,6.90
2022-08-03T08:06:05.391Z,6.60
2022-08-03T08:11:09.583Z,6.40
2022-08-03T08:16:12.322Z,5.80
2022-08-03T08:21:25.586Z,6.40
2022-08-03T08:26:47.762Z,5.70
2022-08-03T08:31:59.506Z,5.00
2022-08-03T08:37:04.411Z,5.20
2022-08-03T08:42:06.219Z,5.40
2022-08-03T08:47:08.333Z,4.50
2022-08-03T08:52:24.950Z,4.90
2022-08-03T08:57:43.287Z,5.20
2022-08-03T09:02:46.403Z,4.20
2022-08-03T09:07:48.844Z,4.40
2022-08-03T09:12:51.790Z,5.10
2022-08-03T09:17:55.700Z,5.10
2022-08-03T09:22:59.128Z,3.90
2022-08-03T09:28:05.028Z,4.30
2022-08-03T09:33:24.528Z,4.70
2022-08-03T09:38:41.092Z,4.30
2022-08-03T09:43:46.442Z,3.90
2022-08-03T09:53:58.579Z,5.50
2022-08-03T09:59:01.663Z,3.90
2022-08-03T10:04:05.210Z,4.10
2022-08-03T10:09:07.465Z,3.10
2022-08-03T10:14:22.173Z,3.80
2022-08-03T10:19:25.722Z,3.60
2022-08-03T10:24:28.920Z,3.30
2022-08-03T10:29:40.172Z,3.50
2022-08-03T10:34:44.670Z,3.70
2022-08-03T10:39:56.492Z,4.50
2022-08-03T10:45:04.903Z,3.90
2022-08-03T10:50:07.649Z,3.40
2022-08-03T10:56:04.134Z,3.80
2022-08-03T11:06:21.001Z,3.40
2022-08-03T11:11:24.030Z,3.40
2022-08-03T11:16:27.474Z,3.10
2022-08-03T11:21:49.216Z,3.00
2022-08-03T11:27:10.931Z,3.40
2022-08-03T11:32:38.338Z,2.90
2022-08-03T11:38:03.605Z,3.10
2022-08-03T11:43:11.143Z,3.40
2022-08-03T11:48:16.262Z,3.40
2022-08-03T11:53:19.022Z,3.50
2022-08-03T11:59:11.262Z,3.40
2022-08-03T12:03:44.071Z,2.90
2022-08-03T12:08:46.701Z,2.80
2022-08-03T12:14:44.124Z,3.10
2022-08-03T12:19:12.984Z,3.40
2022-08-03T12:24:15.491Z,3.10
2022-08-03T12:29:21.149Z,3.20
2022-08-03T12:34:22.986Z,3.20
2022-08-03T12:39:26.490Z,3.10
2022-08-03T12:44:32.165Z,3.20
2022-08-03T12:49:53.657Z,3.80
2022-08-03T12:54:56.633Z,4.20
2022-08-03T13:00:21.263Z,4.60
2022-08-03T13:05:31.899Z,4.40
2022-08-03T13:10:35.247Z,4.40
2022-08-03T13:15:38.611Z,4.20
2022-08-03T13:20:49.674Z,4.60
2022-08-03T13:25:55.063Z,5.00
2022-08-03T13:30:58.011Z,4.10
2022-08-03T13:36:00.124Z,4.50
2022-08-03T13:41:04.997Z,5.40
2022-08-03T13:46:07.137Z,4.90
2022-08-03T13:51:11.772Z,4.80
2022-08-03T13:56:24.461Z,5.10
2022-08-03T14:01:54.410Z,5.00
2022-08-03T14:17:17.065Z,5.30
2022-08-03T14:22:19.097Z,4.50
2022-08-03T14:27:28.163Z,4.40
2022-08-03T14:32:43.597Z,4.60
2022-08-03T14:37:45.804Z,4.80
2022-08-03T14:42:47.647Z,4.70
2022-08-03T14:50:31.857Z,5.10
2022-08-03T14:53:11.662Z,5.90
2022-08-03T14:58:20.019Z,5.30
2022-08-03T15:03:24.942Z,5.90
2022-08-03T15:08:27.023Z,5.20
2022-08-03T15:13:49.234Z,5.50
2022-08-03T15:19:59.626Z,5.20
2022-08-03T15:24:26.673Z,4.90
2022-08-03T15:30:07.689Z,5.10
2022-08-03T15:34:51.344Z,6.00
2022-08-03T15:39:59.887Z,5.00
2022-08-03T15:45:02.507Z,5.40
2022-08-03T15:50:09.823Z,5.40
2022-08-03T15:55:16.153Z,5.40
2022-08-03T16:00:19.540Z,5.80
2022-08-03T16:05:38.769Z,5.70
2022-08-03T16:10:40.826Z,6.10
2022-08-03T16:15:42.778Z,5.80
2022-08-03T16:20:47.773Z,5.30
2022-08-03T16:25:49.622Z,5.60
2022-08-03T16:30:51.403Z,5.80
2022-08-03T16:36:04.246Z,5.50
2022-08-03T16:41:06.158Z,6.60
2022-08-03T16:46:08.197Z,5.50
2022-08-03T16:51:13.259Z,5.30
2022-08-03T16:56:21.262Z,5.70
2022-08-03T17:01:37.665Z,5.90
2022-08-03T17:06:44.801Z,6.40
2022-08-03T17:11:48.401Z,6.40
2022-08-03T17:16:54.347Z,6.40
2022-08-03T17:22:04.801Z,6.00
2022-08-03T17:27:09.279Z,6.00
2022-08-03T17:32:33.224Z,6.40
2022-08-03T17:38:03.077Z,5.50
2022-08-03T17:44:13.249Z,6.10
2022-08-03T17:48:36.176Z,6.40
2022-08-03T17:53:45.873Z,7.00
2022-08-03T17:58:58.082Z,9.00
2022-08-03T18:04:03.225Z,8.10
2022-08-03T18:10:04.046Z,7.70
2022-08-03T18:14:57.571Z,8.50
2022-08-03T18:20:32.269Z,12.10
2022-08-03T18:25:57.738Z,12.20
2022-08-03T18:31:03.227Z,9.20
2022-08-03T18:36:08.494Z,9.70
2022-08-03T18:41:13.181Z,9.80
2022-08-03T18:46:28.661Z,15.10
2022-08-03T18:51:43.448Z,14.60
2022-08-03T18:56:55.670Z,157.00
2022-08-03T19:02:09.288Z,63.00
2022-08-03T19:07:40.245Z,37.50
2022-08-03T19:13:03.248Z,36.40
2022-08-03T19:18:22.035Z,17.00
2022-08-03T19:23:25.257Z,14.90
2022-08-03T19:28:29.594Z,13.90
2022-08-03T19:33:56.021Z,16.60
2022-08-03T19:38:56.780Z,16.30
2022-08-03T19:43:59.549Z,15.20
2022-08-03T19:49:03.981Z,16.40
2022-08-03T19:54:05.957Z,14.70
2022-08-03T19:59:32.280Z,16.60
2022-08-03T20:04:34.652Z,19.30
2022-08-03T20:09:37.527Z,16.00
2022-08-03T20:14:59.955Z,17.90
2022-08-03T20:20:02.825Z,19.70
2022-08-03T20:25:07.677Z,18.70
2022-08-03T20:30:13.343Z,20.20
2022-08-03T20:35:36.281Z,20.70
2022-08-03T20:40:44.695Z,20.20
2022-08-03T20:46:00.027Z,20.20
2022-08-03T20:51:19.387Z,22.50
2022-08-03T20:56:22.863Z,18.90
2022-08-03T21:13:13.735Z,21.70
2022-08-03T21:17:39.303Z,21.80
2022-08-03T21:22:56.632Z,23.30
2022-08-03T21:27:59.380Z,24.60
2022-08-03T21:33:01.241Z,25.60
2022-08-03T21:38:21.123Z,23.00
2022-08-03T21:43:32.315Z,23.60
2022-08-03T21:48:38.457Z,25.00
2022-08-03T21:54:02.441Z,21.60
2022-08-03T21:59:10.029Z,21.60
2022-08-03T22:04:50.706Z,23.80
2022-08-03T22:09:38.731Z,21.90
2022-08-03T22:14:40.605Z,24.50
2022-08-03T22:19:42.433Z,23.80
2022-08-03T22:24:46.535Z,28.10
2022-08-03T22:29:49.379Z,26.00
2022-08-03T22:34:52.191Z,25.20
2022-08-03T22:39:54.888Z,26.20
2022-08-03T22:44:56.763Z,23.00
2022-08-03T22:50:31.356Z,22.60
2022-08-03T22:55:24.924Z,22.50
2022-08-03T23:00:27.208Z,22.50
2022-08-03T23:06:00.653Z,19.40
2022-08-03T23:10:52.944Z,20.60
2022-08-03T23:15:56.043Z,19.60
2022-08-03T23:20:58.759Z,19.90
2022-08-03T23:26:01.252Z,21.20
2022-08-03T23:31:04.493Z,23.80
2022-08-03T23:36:29.555Z,21.60
2022-08-03T23:41:29.650Z,20.20
2022-08-03T23:46:32.770Z,23.80
2022-08-03T23:51:34.512Z,20.90
2022-08-03T23:57:00.519Z,23.60
